Terminal Aerodrome Forecast
Issued by NWS

Home | Current Version | Previous Version | Text Only | Print | Product List | Glossary On
Versions: 1 2 3 4 5 6 7 8 9 10 11 12 13 14 15 16 17 18 19 20 21 22 23 24 25 26 27 28 29 30 31 32 33 34 35
000
FTUS43 KPAH 260520
TAFOWB
TAF
KOWB 260520Z 2606/2706 02009KT 6SM BR OVC009
      TEMPO 2606/2610 3SM BR OVC005
     FM261300 02008KT P6SM OVC012
     FM261700 02008KT P6SM BKN025
     FM262000 01008KT P6SM SCT035=

USA.gov is the U.S. government's official web portal to all federal, state and local government web resources and services.